West Liberty, Ohio
Current Conditions -  °F | °C
As of 7:10 AM on Thursday 29 Jan 2015 (Local Time) from KEDJ Reporting Station
Overcast Overcast  
Wind Chill: 21°   Ceiling: 6000
Heat Index: 32°   Visibility: 10mi
Dew Point: 27°   Wind: 17mph
Humidity: 80%   Direction: 170°S
Pressure: 29.84"   Gusts: 26mph
Location:  40.25°N, 83.76°W
Report Text: KEDJ 291210Z AUTO 17015G23KT 10SM OVC060 00/M03 A2984 RMK AO1
Loading
Personal Weather Stations






























Interactive Weather Map New forecast layout! Learn more

10-Day Weather Forecast

Advertisements
Track Severe Weather on mobile